Time;durP1;ratioP1;P1;durP2;ratioP2;P2;SDS_P1;SDS_P2;PMS_P1;PMS_P2;Temp;Humidity;BMP_temperature;BMP_pressure;BME280_temperature;BME280_humidity;BME280_pressure;Samples;Min_cycle;Max_cycle;Signal;HPM_P1;HPM_P2
2023/12/04 00:00:37;;;;;;;31.77;14.07;;;;;;;;;;4970280;28;20089;-78
2023/12/04 00:03:26;;;;;;;29.30;13.43;;;;;;;;;;4971689;28;20046;-78
2023/12/04 00:05:57;;;;;;;45.20;16.85;;;;;;;;;;4970793;28;20062;-78
2023/12/04 00:08:28;;;;;;;35.70;13.20;;;;;;;;;;5005556;28;20055;-78
2023/12/04 00:10:57;;;;;;;43.20;16.00;;;;;;;;;;4963703;28;20050;-78
2023/12/04 00:13:30;;;;;;;32.15;13.95;;;;;;;;;;5045287;28;20087;-80
2023/12/04 00:16:23;;;;;;;29.52;12.90;;;;;;;;;;5047366;28;20053;-80
2023/12/04 00:18:49;;;;;;;51.08;15.73;;;;;;;;;;5041682;28;20458;-79
2023/12/04 00:21:19;;;;;;;30.75;14.23;;;;;;;;;;5050491;28;20065;-79
2023/12/04 00:24:00;;;;;;;40.05;13.73;;;;;;;;;;5038935;28;20049;-78
2023/12/04 00:26:40;;;;;;;48.85;15.70;;;;;;;;;;5038853;28;20048;-78
2023/12/04 00:29:11;;;;;;;45.97;15.48;;;;;;;;;;5042817;28;20084;-79
2023/12/04 00:32:10;;;;;;;39.00;14.65;;;;;;;;;;5045199;28;20138;-78
2023/12/04 00:34:56;;;;;;;45.40;14.05;;;;;;;;;;5043173;28;20060;-78
2023/12/04 00:37:25;;;;;;;29.35;12.80;;;;;;;;;;5043384;28;20049;-78
2023/12/04 00:40:11;;;;;;;39.85;15.57;;;;;;;;;;5043256;28;20126;-78
2023/12/04 00:42:43;;;;;;;38.97;14.55;;;;;;;;;;5002878;28;20473;-78
2023/12/04 00:45:17;;;;;;;34.17;13.48;;;;;;;;;;5044104;28;20455;-78
2023/12/04 00:48:06;;;;;;;31.98;13.85;;;;;;;;;;5016508;28;20110;-79
2023/12/04 00:51:06;;;;;;;70.03;18.88;;;;;;;;;;5039104;28;20049;-77
2023/12/04 00:56:28;;;;;;;31.70;12.45;;;;;;;;;;5042914;28;20120;-78
2023/12/04 00:59:11;;;;;;;28.70;12.65;;;;;;;;;;5048794;28;20056;-79
2023/12/04 01:01:51;;;;;;;32.92;13.88;;;;;;;;;;5042857;28;20576;-78
2023/12/04 01:04:24;;;;;;;41.13;14.95;;;;;;;;;;5050077;28;20049;-78
2023/12/04 01:06:54;;;;;;;28.98;13.00;;;;;;;;;;5032018;28;20672;-79
2023/12/04 01:09:24;;;;;;;;;;;;;;;;;;5051298;28;20055;-78
2023/12/04 01:11:56;;;;;;;38.20;13.80;;;;;;;;;;5047734;28;20308;-78
2023/12/04 01:14:25;;;;;;;47.88;15.07;;;;;;;;;;5051700;28;20052;-77
2023/12/04 01:16:55;;;;;;;33.67;14.45;;;;;;;;;;5050074;28;20124;-78
2023/12/04 01:19:24;;;;;;;27.90;12.95;;;;;;;;;;5038627;28;20072;-78
2023/12/04 01:21:52;;;;;;;40.42;14.02;;;;;;;;;;5037265;28;20059;-78
2023/12/04 01:24:21;;;;;;;43.90;14.90;;;;;;;;;;5039021;28;20040;-77
2023/12/04 01:26:54;;;;;;;42.72;14.48;;;;;;;;;;5040417;28;20056;-78
2023/12/04 01:29:22;;;;;;;32.95;12.98;;;;;;;;;;5035614;28;20088;-77
2023/12/04 01:32:00;;;;;;;28.38;12.23;;;;;;;;;;5045142;28;20079;-77
2023/12/04 01:34:26;;;;;;;45.83;15.23;;;;;;;;;;5040857;28;20041;-78
2023/12/04 01:36:52;;;;;;;;;;;;;;;;;;5030508;28;20049;-78
2023/12/04 01:39:21;;;;;;;24.67;11.45;;;;;;;;;;5022552;28;19928;-78
2023/12/04 01:41:48;;;;;;;38.88;13.73;;;;;;;;;;5046256;28;20122;-78
2023/12/04 01:44:35;;;;;;;26.35;10.90;;;;;;;;;;5007795;28;20598;-78
2023/12/04 01:47:07;;;;;;;30.17;12.95;;;;;;;;;;5041121;28;20062;-79
2023/12/04 01:49:39;;;;;;;45.72;14.57;;;;;;;;;;5049118;28;20073;-78
2023/12/04 01:52:38;;;;;;;26.35;11.77;;;;;;;;;;5044892;28;20391;-78
2023/12/04 01:55:19;;;;;;;28.58;11.93;;;;;;;;;;5047642;28;20067;-78
2023/12/04 01:57:46;;;;;;;43.38;14.50;;;;;;;;;;5037957;28;20067;-78
2023/12/04 02:00:20;;;;;;;31.85;13.43;;;;;;;;;;5035041;28;20042;-79
2023/12/04 02:02:56;;;;;;;22.95;11.27;;;;;;;;;;5048729;28;20076;-78
2023/12/04 02:05:23;;;;;;;27.67;11.95;;;;;;;;;;5052628;28;20057;-79
2023/12/04 02:08:03;;;;;;;23.70;11.05;;;;;;;;;;5051598;28;20064;-79
2023/12/04 02:10:33;;;;;;;28.88;13.23;;;;;;;;;;5045062;28;20059;-78
2023/12/04 02:13:12;;;;;;;26.15;11.70;;;;;;;;;;5045027;28;20133;-78
2023/12/04 02:15:50;;;;;;;28.38;11.40;;;;;;;;;;5037592;28;20085;-79
2023/12/04 02:18:20;;;;;;;41.67;13.95;;;;;;;;;;5035848;28;20073;-78
2023/12/04 02:20:55;;;;;;;25.77;11.70;;;;;;;;;;5038825;28;20059;-79
2023/12/04 02:23:23;;;;;;;27.55;11.75;;;;;;;;;;5053154;28;20052;-78
2023/12/04 02:26:03;;;;;;;39.60;12.98;;;;;;;;;;5039125;28;20133;-78
2023/12/04 02:28:37;;;;;;;39.42;14.25;;;;;;;;;;5039025;28;20128;-78
2023/12/04 02:31:27;;;;;;;35.95;13.13;;;;;;;;;;5038394;28;20062;-77
2023/12/04 02:34:13;;;;;;;39.10;13.07;;;;;;;;;;5027105;28;20429;-78
2023/12/04 02:37:04;;;;;;;26.15;12.50;;;;;;;;;;5042504;28;20040;-78
2023/12/04 02:39:55;;;;;;;32.22;12.52;;;;;;;;;;5034038;28;20458;-78
2023/12/04 02:42:33;;;;;;;24.33;11.25;;;;;;;;;;5035137;28;20045;-78
2023/12/04 02:45:01;;;;;;;36.17;13.77;;;;;;;;;;5047791;28;20044;-78
2023/12/04 02:47:47;;;;;;;27.27;11.73;;;;;;;;;;5052329;28;20076;-78
2023/12/04 02:50:24;;;;;;;33.67;12.95;;;;;;;;;;5052331;28;20080;-78
2023/12/04 02:52:50;;;;;;;26.48;12.23;;;;;;;;;;5054021;28;20068;-80
2023/12/04 02:55:16;;;;;;;;;;;;;;;;;;5050363;28;20053;-78
2023/12/04 02:57:47;;;;;;;47.42;14.65;;;;;;;;;;5052073;28;20003;-78
2023/12/04 03:00:19;;;;;;;40.97;13.95;;;;;;;;;;5053962;28;20048;-78
2023/12/04 03:02:53;;;;;;;49.63;14.95;;;;;;;;;;5036434;28;20059;-78
2023/12/04 03:05:20;;;;;;;26.02;11.43;;;;;;;;;;5036627;28;20119;-78
2023/12/04 03:07:57;;;;;;;28.83;11.95;;;;;;;;;;5052151;28;20056;-78
2023/12/04 03:10:37;;;;;;;22.65;10.88;;;;;;;;;;5050568;28;20060;-79
2023/12/04 03:13:18;;;;;;;32.78;11.85;;;;;;;;;;5071295;28;20053;-78
2023/12/04 03:15:52;;;;;;;39.28;14.60;;;;;;;;;;5057754;28;20114;-78
2023/12/04 03:18:19;;;;;;;23.90;11.05;;;;;;;;;;5050338;28;20132;-78
2023/12/04 03:21:04;;;;;;;27.92;11.25;;;;;;;;;;5052385;28;20457;-78
2023/12/04 03:23:33;;;;;;;30.58;12.70;;;;;;;;;;5053234;28;20115;-78
2023/12/04 03:26:03;;;;;;;29.83;11.13;;;;;;;;;;5055278;28;20436;-78
2023/12/04 03:28:39;;;;;;;28.77;11.50;;;;;;;;;;5035970;28;20094;-78
2023/12/04 03:31:12;;;;;;;25.00;11.40;;;;;;;;;;5053563;28;20059;-78
2023/12/04 03:33:56;;;;;;;25.60;10.50;;;;;;;;;;5059899;28;20072;-80
2023/12/04 03:36:34;;;;;;;24.17;11.77;;;;;;;;;;5073030;28;20052;-78
2023/12/04 03:39:00;;;;;;;44.60;13.48;;;;;;;;;;5057681;28;20057;-78
2023/12/04 03:41:27;;;;;;;55.35;15.65;;;;;;;;;;5032965;28;20114;-78
2023/12/04 03:43:56;;;;;;;27.25;10.65;;;;;;;;;;5049364;28;20040;-81
2023/12/04 03:46:25;;;;;;;26.60;10.90;;;;;;;;;;5045781;28;20511;-78
2023/12/04 03:48:58;;;;;;;27.05;12.15;;;;;;;;;;5068243;28;20037;-78
2023/12/04 03:51:34;;;;;;;27.95;11.52;;;;;;;;;;5018510;28;20099;-78
2023/12/04 03:54:09;;;;;;;25.40;11.23;;;;;;;;;;5057293;28;20051;-78
2023/12/04 03:56:35;;;;;;;;;;;;;;;;;;5053417;28;20080;-79
2023/12/04 03:59:18;;;;;;;26.45;12.00;;;;;;;;;;5049663;28;20537;-78
2023/12/04 04:01:50;;;;;;;27.90;11.50;;;;;;;;;;5052342;28;20060;-78
2023/12/04 04:04:28;;;;;;;36.92;13.32;;;;;;;;;;5041533;28;20171;-78
2023/12/04 04:07:10;;;;;;;35.30;13.30;;;;;;;;;;5052406;28;20688;-78
2023/12/04 04:09:37;;;;;;;23.55;11.25;;;;;;;;;;5035072;28;20516;-78
2023/12/04 04:12:24;;;;;;;47.17;14.63;;;;;;;;;;5048231;28;20064;-77
2023/12/04 04:14:58;;;;;;;29.65;12.25;;;;;;;;;;5051221;28;20160;-79
2023/12/04 04:17:34;;;;;;;30.15;11.00;;;;;;;;;;5047389;28;20057;-77
2023/12/04 04:20:08;;;;;;;34.03;12.80;;;;;;;;;;5034844;28;20038;-78
2023/12/04 04:22:50;;;;;;;26.35;11.23;;;;;;;;;;5050074;28;20098;-78
2023/12/04 04:25:25;;;;;;;30.88;11.77;;;;;;;;;;5037755;28;20064;-79
2023/12/04 04:27:53;;;;;;;23.17;11.02;;;;;;;;;;5038797;28;20087;-78
2023/12/04 04:30:23;;;;;;;27.55;11.85;;;;;;;;;;5045281;28;20079;-78
2023/12/04 04:33:00;;;;;;;24.38;11.32;;;;;;;;;;5041777;28;20128;-78
2023/12/04 04:35:34;;;;;;;23.52;10.27;;;;;;;;;;5034046;28;20518;-78
2023/12/04 04:38:30;;;;;;;25.67;10.25;;;;;;;;;;5039270;28;20078;-78
2023/12/04 04:40:58;;;;;;;28.15;12.48;;;;;;;;;;5016197;28;20061;-78
2023/12/04 04:43:26;;;;;;;20.73;9.65;;;;;;;;;;5028406;28;20530;-79
2023/12/04 04:46:46;;;;;;;23.60;10.18;;;;;;;;;;5033941;28;20045;-78
2023/12/04 04:49:19;;;;;;;25.38;11.43;;;;;;;;;;5028106;28;20057;-78
2023/12/04 04:51:52;;;;;;;22.63;11.05;;;;;;;;;;5034817;28;20111;-78
2023/12/04 04:54:23;;;;;;;32.38;12.55;;;;;;;;;;5049042;28;20668;-78
2023/12/04 04:57:08;;;;;;;38.90;13.02;;;;;;;;;;5039103;28;20099;-79
2023/12/04 04:59:43;;;;;;;23.08;9.93;;;;;;;;;;5029567;28;20053;-78
2023/12/04 05:02:09;;;;;;;28.13;11.85;;;;;;;;;;5037716;28;20166;-78
2023/12/04 05:04:42;;;;;;;23.90;11.95;;;;;;;;;;5049635;28;20056;-78
2023/12/04 05:07:17;;;;;;;52.90;15.05;;;;;;;;;;5028184;28;20049;-78
2023/12/04 05:10:10;;;;;;;27.27;11.48;;;;;;;;;;5028482;28;20137;-78
2023/12/04 05:12:58;;;;;;;22.10;10.43;;;;;;;;;;5013560;28;20446;-78
2023/12/04 05:15:44;;;;;;;25.88;11.07;;;;;;;;;;5012546;28;20114;-78
2023/12/04 05:18:18;;;;;;;26.08;10.85;;;;;;;;;;5040028;28;20052;-78
2023/12/04 05:20:57;;;;;;;39.53;13.65;;;;;;;;;;5045492;28;20056;-78
2023/12/04 05:23:34;;;;;;;22.10;10.82;;;;;;;;;;5047435;28;20439;-78
2023/12/04 05:26:12;;;;;;;23.10;9.55;;;;;;;;;;5035308;28;20051;-78
2023/12/04 05:29:14;;;;;;;24.42;10.30;;;;;;;;;;5040586;28;20084;-78
2023/12/04 05:32:01;;;;;;;26.85;10.52;;;;;;;;;;5031476;28;20049;-78
2023/12/04 05:34:31;;;;;;;22.58;10.32;;;;;;;;;;4996357;28;20067;-78
2023/12/04 05:36:59;;;;;;;38.63;12.07;;;;;;;;;;5041504;28;20695;-78
2023/12/04 05:39:38;;;;;;;24.30;10.98;;;;;;;;;;5049919;28;20053;-79
2023/12/04 05:42:08;;;;;;;27.35;10.85;;;;;;;;;;5030105;28;20082;-80
2023/12/04 05:44:44;;;;;;;27.10;11.23;;;;;;;;;;5005335;28;20515;-78
2023/12/04 05:47:35;;;;;;;21.55;10.20;;;;;;;;;;5012291;28;20041;-78
2023/12/04 05:50:09;;;;;;;22.02;10.88;;;;;;;;;;5019567;28;20049;-80
2023/12/04 05:52:42;;;;;;;22.23;9.88;;;;;;;;;;4995375;28;20089;-77
2023/12/04 05:55:20;;;;;;;26.48;10.23;;;;;;;;;;5000943;28;20113;-79
2023/12/04 05:57:47;;;;;;;23.13;10.20;;;;;;;;;;4990826;28;20061;-78
2023/12/04 06:00:35;;;;;;;20.98;9.68;;;;;;;;;;5017252;28;20057;-79
2023/12/04 06:03:03;;;;;;;36.70;12.00;;;;;;;;;;5007341;28;20937;-78
2023/12/04 06:05:29;;;;;;;26.73;10.55;;;;;;;;;;5011266;28;20053;-78
2023/12/04 06:08:06;;;;;;;27.98;11.52;;;;;;;;;;4961744;28;20100;-78
2023/12/04 06:10:37;;;;;;;22.13;10.35;;;;;;;;;;5011569;28;20054;-78
2023/12/04 06:13:06;;;;;;;;;;;;;;;;;;5007004;28;20053;-79
2023/12/04 06:15:44;;;;;;;24.55;10.48;;;;;;;;;;5028624;28;19921;-79
2023/12/04 06:18:23;;;;;;;22.50;9.77;;;;;;;;;;5044883;28;20394;-78
2023/12/04 06:20:57;;;;;;;20.27;9.32;;;;;;;;;;5033472;28;20053;-78
2023/12/04 06:23:35;;;;;;;19.00;8.50;;;;;;;;;;5031656;28;20228;-78
2023/12/04 06:26:25;;;;;;;25.52;10.60;;;;;;;;;;5031053;28;20109;-78
2023/12/04 06:28:52;;;;;;;23.02;10.15;;;;;;;;;;5037870;28;20041;-78
2023/12/04 06:31:28;;;;;;;22.58;10.57;;;;;;;;;;5033408;28;20080;-78
2023/12/04 06:33:55;;;;;;;22.17;10.10;;;;;;;;;;5048135;28;20048;-78
2023/12/04 06:36:32;;;;;;;20.65;8.95;;;;;;;;;;5041419;28;20141;-79
2023/12/04 06:39:12;;;;;;;36.38;12.50;;;;;;;;;;5049057;28;20052;-78
2023/12/04 06:42:00;;;;;;;26.40;10.88;;;;;;;;;;5033393;28;20062;-78
2023/12/04 06:44:38;;;;;;;24.20;10.45;;;;;;;;;;5023035;28;20037;-79
2023/12/04 06:47:06;;;;;;;24.83;10.60;;;;;;;;;;5041900;28;20080;-78
2023/12/04 06:49:54;;;;;;;24.63;10.00;;;;;;;;;;5045409;28;20040;-79
2023/12/04 06:52:38;;;;;;;;;;;;;;;;;;5035666;28;20036;-79
2023/12/04 06:55:23;;;;;;;37.00;12.48;;;;;;;;;;5044974;28;20031;-79
2023/12/04 06:57:51;;;;;;;27.73;10.55;;;;;;;;;;5042828;28;20150;-78
2023/12/04 07:00:17;;;;;;;19.00;9.45;;;;;;;;;;5041519;28;20518;-79
2023/12/04 07:02:45;;;;;;;27.95;10.98;;;;;;;;;;5037308;28;20065;-79
2023/12/04 07:05:30;;;;;;;21.25;9.23;;;;;;;;;;5046734;28;20040;-78
2023/12/04 07:07:57;;;;;;;38.05;13.10;;;;;;;;;;5041130;28;20050;-79
2023/12/04 07:10:43;;;;;;;23.60;9.98;;;;;;;;;;5053100;28;20095;-78
2023/12/04 07:13:12;;;;;;;29.23;11.48;;;;;;;;;;5062615;28;20052;-78
2023/12/04 07:15:53;;;;;;;22.20;9.75;;;;;;;;;;5051522;28;20052;-77
2023/12/04 07:18:19;;;;;;;25.17;10.27;;;;;;;;;;5071639;28;20079;-75
2023/12/04 07:20:45;;;;;;;;;;;;;;;;;;5022113;28;20615;-75
2023/12/04 07:23:11;;;;;;;37.45;12.23;;;;;;;;;;5045170;28;19946;-74
2023/12/04 07:25:37;;;;;;;19.23;9.98;;;;;;;;;;5043691;28;20293;-73
2023/12/04 07:28:03;;;;;;;21.67;9.52;;;;;;;;;;5035385;28;20259;-75
2023/12/04 07:30:29;;;;;;;;;;;;;;;;;;5055083;28;20068;-74
2023/12/04 07:32:55;;;;;;;26.80;10.65;;;;;;;;;;5051893;28;19925;-76
2023/12/04 07:35:21;;;;;;;25.60;10.93;;;;;;;;;;5037042;28;20045;-77
2023/12/04 07:37:47;;;;;;;21.23;9.10;;;;;;;;;;5056911;28;20055;-76
2023/12/04 07:40:13;;;;;;;;;;;;;;;;;;5028277;28;20128;-77
2023/12/04 07:42:39;;;;;;;21.17;9.05;;;;;;;;;;5052758;28;20007;-76
2023/12/04 07:45:05;;;;;;;;;;;;;;;;;;5039372;28;20123;-77
2023/12/04 07:47:31;;;;;;;18.05;9.10;;;;;;;;;;5050192;28;20390;-75
2023/12/04 07:49:57;;;;;;;22.42;9.02;;;;;;;;;;5066569;28;20040;-74
2023/12/04 07:52:23;;;;;;;22.75;9.93;;;;;;;;;;5072313;28;20056;-75
2023/12/04 07:54:49;;;;;;;16.67;7.88;;;;;;;;;;5030410;28;20131;-75
2023/12/04 07:57:16;;;;;;;25.55;10.73;;;;;;;;;;5042772;28;20052;-74
2023/12/04 07:59:42;;;;;;;19.70;8.93;;;;;;;;;;5062551;28;20742;-76
2023/12/04 08:02:08;;;;;;;21.92;9.52;;;;;;;;;;5054548;28;20055;-78
2023/12/04 08:04:34;;;;;;;19.48;8.68;;;;;;;;;;5070890;28;20052;-77
2023/12/04 08:07:00;;;;;;;25.70;10.02;;;;;;;;;;5055554;28;20049;-76
2023/12/04 08:09:26;;;;;;;19.90;9.25;;;;;;;;;;5038295;28;20044;-77
2023/12/04 08:11:52;;;;;;;22.70;9.93;;;;;;;;;;5059858;28;20045;-79
2023/12/04 08:14:18;;;;;;;;;;;;;;;;;;5041761;28;20105;-78
2023/12/04 08:16:44;;;;;;;17.35;7.40;;;;;;;;;;5035269;28;20055;-78
2023/12/04 08:19:10;;;;;;;17.77;7.57;;;;;;;;;;5041392;28;20041;-79
2023/12/04 08:21:36;;;;;;;15.93;7.43;;;;;;;;;;5053534;28;20060;-78
2023/12/04 08:24:02;;;;;;;20.40;9.23;;;;;;;;;;5051738;28;20139;-78
2023/12/04 08:26:28;;;;;;;16.02;7.38;;;;;;;;;;5050087;28;20049;-78
2023/12/04 08:28:55;;;;;;;;;;;;;;;;;;5051934;28;20052;-75
2023/12/04 08:31:21;;;;;;;19.10;8.07;;;;;;;;;;5063065;28;20419;-80
2023/12/04 08:33:47;;;;;;;14.48;6.88;;;;;;;;;;5072349;28;20683;-76
2023/12/04 08:36:13;;;;;;;;;;;;;;;;;;5073394;28;20045;-76
2023/12/04 08:38:39;;;;;;;14.90;6.75;;;;;;;;;;5054708;28;19920;-77
2023/12/04 08:41:05;;;;;;;;;;;;;;;;;;5052323;28;20041;-75
2023/12/04 08:43:31;;;;;;;14.50;7.32;;;;;;;;;;5053515;28;20361;-77
2023/12/04 08:45:57;;;;;;;15.90;7.15;;;;;;;;;;5046585;28;20041;-76
2023/12/04 08:48:23;;;;;;;;;;;;;;;;;;5035341;28;20049;-75
2023/12/04 08:50:49;;;;;;;14.48;7.00;;;;;;;;;;5052427;28;20840;-73
2023/12/04 08:53:15;;;;;;;;;;;;;;;;;;5063164;28;20036;-75
2023/12/04 08:55:41;;;;;;;16.63;6.70;;;;;;;;;;5043407;28;20794;-74
2023/12/04 08:58:07;;;;;;;14.57;7.07;;;;;;;;;;5041681;28;20437;-76
2023/12/04 09:00:35;;;;;;;14.90;7.10;;;;;;;;;;5033771;28;20052;-76
2023/12/04 09:03:02;;;;;;;17.33;7.90;;;;;;;;;;5038747;28;20060;-74
2023/12/04 09:05:28;;;;;;;19.23;8.38;;;;;;;;;;5044387;28;20067;-74
2023/12/04 09:07:54;;;;;;;16.88;7.57;;;;;;;;;;5053753;28;20048;-74
2023/12/04 09:10:21;;;;;;;12.57;6.60;;;;;;;;;;5054573;28;20358;-78
2023/12/04 09:13:13;;;;;;;14.75;6.75;;;;;;;;;;5035907;28;20067;-77
2023/12/04 09:15:47;;;;;;;13.57;6.13;;;;;;;;;;5068994;28;20124;-76
2023/12/04 09:18:13;;;;;;;16.17;7.68;;;;;;;;;;5018130;28;20056;-74
2023/12/04 09:20:39;;;;;;;15.48;7.63;;;;;;;;;;5033987;28;20049;-74
2023/12/04 09:23:05;;;;;;;17.98;8.43;;;;;;;;;;5051430;28;20520;-74
2023/12/04 09:25:31;;;;;;;;;;;;;;;;;;5063131;28;20428;-75
2023/12/04 09:27:57;;;;;;;14.10;6.55;;;;;;;;;;5069997;28;19920;-78
2023/12/04 09:30:23;;;;;;;18.00;7.35;;;;;;;;;;5037066;28;20052;-75
2023/12/04 09:32:49;;;;;;;15.60;6.72;;;;;;;;;;5053690;28;20040;-75
2023/12/04 09:35:15;;;;;;;15.88;7.43;;;;;;;;;;5071840;28;20049;-81
2023/12/04 09:37:41;;;;;;;12.05;6.15;;;;;;;;;;5050840;28;20405;-75
2023/12/04 09:40:08;;;;;;;;;;;;;;;;;;5038009;28;20048;-77
2023/12/04 09:42:34;;;;;;;13.35;6.30;;;;;;;;;;5069432;28;20362;-76
2023/12/04 09:45:01;;;;;;;11.95;6.40;;;;;;;;;;5053810;28;20048;-74
2023/12/04 09:47:28;;;;;;;13.00;6.15;;;;;;;;;;5035710;28;20064;-75
2023/12/04 09:49:56;;;;;;;14.55;6.95;;;;;;;;;;5070039;28;20052;-78
2023/12/04 09:52:31;;;;;;;21.85;8.05;;;;;;;;;;5065157;28;20044;-77
2023/12/04 09:55:05;;;;;;;13.15;6.40;;;;;;;;;;5050381;28;20036;-74
2023/12/04 09:57:31;;;;;;;13.40;6.70;;;;;;;;;;5039811;28;20052;-76
2023/12/04 10:00:00;;;;;;;12.15;6.15;;;;;;;;;;5028185;28;20128;-76
2023/12/04 10:02:26;;;;;;;14.02;6.75;;;;;;;;;;5048524;28;20067;-78
2023/12/04 10:04:52;;;;;;;10.98;5.60;;;;;;;;;;5033964;28;20128;-75
2023/12/04 10:07:18;;;;;;;;;;;;;;;;;;5039393;28;20120;-77
2023/12/04 10:09:52;;;;;;;14.00;6.55;;;;;;;;;;5038227;28;19968;-79
2023/12/04 10:12:36;;;;;;;12.15;5.72;;;;;;;;;;5024869;28;20132;-78
2023/12/04 10:15:06;;;;;;;14.55;6.93;;;;;;;;;;5025723;28;20055;-75
2023/12/04 10:17:40;;;;;;;13.15;6.57;;;;;;;;;;5033758;28;20045;-80
2023/12/04 10:20:11;;;;;;;13.30;6.43;;;;;;;;;;5031606;28;20045;-81
2023/12/04 10:22:38;;;;;;;13.75;6.35;;;;;;;;;;5053045;28;20490;-75
2023/12/04 10:25:15;;;;;;;10.43;5.50;;;;;;;;;;5051240;28;20041;-74
2023/12/04 10:27:41;;;;;;;11.70;5.68;;;;;;;;;;5044830;28;20041;-80
2023/12/04 10:30:08;;;;;;;;;;;;;;;;;;5054953;28;20045;-77
2023/12/04 10:32:41;;;;;;;12.20;5.72;;;;;;;;;;5064048;28;20301;-77
2023/12/04 10:35:17;;;;;;;11.25;5.68;;;;;;;;;;5049764;28;20044;-78
2023/12/04 10:37:56;;;;;;;17.00;7.15;;;;;;;;;;5033633;28;20053;-78
2023/12/04 10:40:26;;;;;;;11.38;5.80;;;;;;;;;;5035262;28;20502;-77
2023/12/04 10:43:17;;;;;;;10.35;5.40;;;;;;;;;;5044066;28;20053;-77
2023/12/04 10:45:54;;;;;;;10.70;5.50;;;;;;;;;;5049692;28;20127;-77
2023/12/04 10:48:26;;;;;;;12.95;5.55;;;;;;;;;;5034783;28;20071;-77
2023/12/04 10:51:00;;;;;;;11.18;5.80;;;;;;;;;;5032115;28;20053;-77
2023/12/04 10:53:32;;;;;;;10.88;5.18;;;;;;;;;;5034524;28;20048;-78
2023/12/04 10:56:31;;;;;;;11.18;5.18;;;;;;;;;;5034543;28;20458;-77
2023/12/04 10:59:28;;;;;;;14.43;6.20;;;;;;;;;;5008167;28;20057;-77
2023/12/04 11:02:02;;;;;;;11.20;5.95;;;;;;;;;;5051632;28;20055;-78
2023/12/04 11:04:38;;;;;;;10.30;5.25;;;;;;;;;;5070096;28;20056;-76
2023/12/04 11:07:05;;;;;;;13.02;6.20;;;;;;;;;;5052135;28;20048;-75
2023/12/04 11:09:35;;;;;;;12.85;6.00;;;;;;;;;;5054461;28;20059;-75
2023/12/04 11:12:06;;;;;;;13.43;5.85;;;;;;;;;;5050363;28;20037;-75
2023/12/04 11:14:38;;;;;;;11.82;5.40;;;;;;;;;;5045882;28;20057;-77
2023/12/04 11:17:14;;;;;;;12.90;6.43;;;;;;;;;;5061188;28;20044;-76
2023/12/04 11:20:09;;;;;;;12.25;5.95;;;;;;;;;;5068184;28;20048;-77
2023/12/04 11:22:50;;;;;;;10.52;5.30;;;;;;;;;;5050552;28;20048;-78
2023/12/04 11:25:16;;;;;;;11.30;5.20;;;;;;;;;;5041154;28;20103;-75
2023/12/04 11:27:42;;;;;;;;;;;;;;;;;;5036265;28;20524;-75
2023/12/04 11:30:09;;;;;;;10.57;4.93;;;;;;;;;;5035073;28;19921;-73
2023/12/04 11:32:45;;;;;;;10.82;5.80;;;;;;;;;;5046617;28;20059;-75
2023/12/04 11:35:18;;;;;;;11.80;5.97;;;;;;;;;;5053399;28;20041;-73
2023/12/04 11:37:45;;;;;;;17.75;6.80;;;;;;;;;;5044681;28;20186;-76
2023/12/04 11:40:12;;;;;;;13.93;6.25;;;;;;;;;;5037737;28;20086;-74
2023/12/04 11:42:41;;;;;;;16.08;7.18;;;;;;;;;;5055894;28;20067;-73
2023/12/04 11:45:07;;;;;;;11.52;5.25;;;;;;;;;;5043161;28;20044;-74
2023/12/04 11:47:54;;;;;;;11.45;5.45;;;;;;;;;;5036456;28;20044;-74
2023/12/04 11:50:20;;;;;;;11.30;5.55;;;;;;;;;;5069562;28;20044;-74
2023/12/04 11:52:47;;;;;;;10.40;5.45;;;;;;;;;;5053336;28;20186;-71
2023/12/04 11:55:16;;;;;;;9.55;4.90;;;;;;;;;;5055625;28;20111;-73
2023/12/04 11:57:42;;;;;;;11.82;5.95;;;;;;;;;;5048871;28;20400;-74
2023/12/04 12:00:08;;;;;;;;;;;;;;;;;;5055796;28;20537;-74
2023/12/04 12:02:34;;;;;;;13.27;5.70;;;;;;;;;;5066779;28;20003;-74
2023/12/04 12:05:00;;;;;;;;;;;;;;;;;;5040985;28;20053;-73
2023/12/04 12:07:27;;;;;;;10.07;5.18;;;;;;;;;;5054814;28;19965;-74
2023/12/04 12:09:53;;;;;;;10.68;5.13;;;;;;;;;;5053877;28;20562;-74
2023/12/04 12:12:19;;;;;;;10.32;5.25;;;;;;;;;;5040347;28;20075;-73
2023/12/04 12:14:45;;;;;;;;;;;;;;;;;;5035693;28;20467;-73
2023/12/04 12:17:13;;;;;;;12.07;4.80;;;;;;;;;;5044619;28;20003;-74
2023/12/04 12:19:39;;;;;;;10.18;5.63;;;;;;;;;;5044919;28;20064;-72
2023/12/04 12:22:05;;;;;;;11.18;5.85;;;;;;;;;;5037581;28;20048;-72
2023/12/04 12:24:31;;;;;;;;;;;;;;;;;;5053787;28;20040;-73
2023/12/04 12:26:57;;;;;;;10.82;5.32;;;;;;;;;;5043980;28;19931;-75
2023/12/04 12:29:23;;;;;;;10.50;5.35;;;;;;;;;;5057170;28;20048;-73
2023/12/04 12:31:50;;;;;;;11.70;4.90;;;;;;;;;;5061003;28;20080;-74
2023/12/04 12:34:17;;;;;;;11.52;5.47;;;;;;;;;;5040489;28;20044;-75
2023/12/04 12:36:43;;;;;;;10.32;5.15;;;;;;;;;;5061891;28;20049;-74
2023/12/04 12:39:09;;;;;;;;;;;;;;;;;;5029452;28;20052;-72
2023/12/04 12:41:35;;;;;;;14.15;6.38;;;;;;;;;;5049723;28;20423;-72
2023/12/04 12:44:03;;;;;;;12.27;5.53;;;;;;;;;;5070831;28;20052;-75
2023/12/04 12:46:32;;;;;;;10.23;5.22;;;;;;;;;;5053094;28;20450;-75
2023/12/04 12:49:08;;;;;;;10.52;5.40;;;;;;;;;;5071086;28;20464;-77
2023/12/04 12:51:37;;;;;;;11.15;5.25;;;;;;;;;;5071379;28;20146;-75
2023/12/04 12:54:03;;;;;;;10.07;5.03;;;;;;;;;;5070578;28;20508;-79
2023/12/04 12:56:29;;;;;;;;;;;;;;;;;;5069121;28;20047;-76
2023/12/04 12:59:06;;;;;;;11.02;4.97;;;;;;;;;;5053357;28;19942;-73
2023/12/04 13:01:35;;;;;;;12.48;5.80;;;;;;;;;;5064683;28;20048;-76
2023/12/04 13:04:07;;;;;;;10.40;5.35;;;;;;;;;;5053789;28;20183;-77
2023/12/04 13:06:33;;;;;;;;;;;;;;;;;;5035510;28;20098;-75
2023/12/04 13:09:01;;;;;;;10.52;5.18;;;;;;;;;;5042821;28;19947;-77
2023/12/04 13:11:31;;;;;;;11.90;5.95;;;;;;;;;;5047529;28;20102;-76
2023/12/04 13:14:04;;;;;;;12.80;6.55;;;;;;;;;;5034300;28;20056;-75
2023/12/04 13:16:30;;;;;;;12.00;5.55;;;;;;;;;;5022832;28;20044;-76
2023/12/04 13:21:56;;;;;;;12.25;5.65;;;;;;;;;;5070904;28;20127;-78
2023/12/04 13:24:29;;;;;;;11.10;5.15;;;;;;;;;;5069274;28;20085;-76
2023/12/04 13:27:00;;;;;;;10.77;5.30;;;;;;;;;;5069137;28;20052;-78
2023/12/04 13:29:35;;;;;;;10.23;5.40;;;;;;;;;;5048985;28;20055;-76
2023/12/04 13:32:01;;;;;;;;;;;;;;;;;;5037332;28;20421;-77
2023/12/04 13:34:29;;;;;;;9.30;4.72;;;;;;;;;;5045287;28;19921;-75
2023/12/04 13:36:58;;;;;;;13.73;5.95;;;;;;;;;;5068440;28;20048;-76
2023/12/04 13:39:46;;;;;;;11.90;5.00;;;;;;;;;;5066758;28;20040;-74
2023/12/04 13:44:57;;;;;;;12.55;5.85;;;;;;;;;;5064880;28;20048;-74
2023/12/04 13:47:23;;;;;;;9.75;5.05;;;;;;;;;;5035329;28;20174;-76
2023/12/04 13:49:49;;;;;;;11.77;6.00;;;;;;;;;;5055695;28;20048;-75
2023/12/04 13:52:15;;;;;;;;;;;;;;;;;;5033288;28;20055;-73
2023/12/04 13:54:47;;;;;;;11.60;5.28;;;;;;;;;;5045204;28;19927;-75
2023/12/04 13:57:43;;;;;;;13.35;6.28;;;;;;;;;;5055759;28;20040;-75
2023/12/04 14:00:00;;;;;;;8.98;4.68;;;;;;;;;;5047084;28;20716;-75
2023/12/04 14:02:26;;;;;;;13.15;6.47;;;;;;;;;;5018453;28;20153;-75
2023/12/04 14:04:52;;;;;;;11.10;5.22;;;;;;;;;;5062409;28;20045;-75
2023/12/04 14:07:19;;;;;;;11.10;5.75;;;;;;;;;;5058892;28;20131;-75
2023/12/04 14:09:45;;;;;;;;;;;;;;;;;;5048056;28;20045;-74
2023/12/04 14:12:11;;;;;;;12.77;5.68;;;;;;;;;;5050713;28;19933;-76
2023/12/04 14:14:37;;;;;;;11.80;6.38;;;;;;;;;;5044033;28;20457;-76
2023/12/04 14:17:04;;;;;;;;;;;;;;;;;;5045046;28;20052;-75
2023/12/04 14:19:31;;;;;;;10.75;5.55;;;;;;;;;;5047106;28;19924;-74
2023/12/04 14:21:57;;;;;;;11.88;5.80;;;;;;;;;;5044360;28;20429;-75
2023/12/04 14:24:23;;;;;;;;;;;;;;;;;;5046340;28;20095;-75
2023/12/04 14:26:49;;;;;;;13.57;6.63;;;;;;;;;;5055975;28;19925;-76
2023/12/04 14:29:15;;;;;;;16.85;6.43;;;;;;;;;;5057619;28;20037;-74
2023/12/04 14:31:41;;;;;;;15.48;7.53;;;;;;;;;;5071050;28;20076;-75
2023/12/04 14:34:07;;;;;;;;;;;;;;;;;;5070309;28;20041;-76
2023/12/04 14:36:34;;;;;;;11.47;5.70;;;;;;;;;;5040861;28;20345;-76
2023/12/04 14:39:00;;;;;;;12.38;6.00;;;;;;;;;;5050467;28;20056;-76
2023/12/04 14:41:26;;;;;;;15.80;7.28;;;;;;;;;;5071133;28;20072;-75
2023/12/04 14:43:53;;;;;;;;;;;;;;;;;;5039381;28;20048;-76
2023/12/04 14:46:19;;;;;;;14.13;6.22;;;;;;;;;;5046350;28;20007;-74
2023/12/04 14:48:45;;;;;;;12.25;6.20;;;;;;;;;;5055766;28;20044;-74
2023/12/04 14:51:11;;;;;;;;;;;;;;;;;;5042127;28;20043;-75
2023/12/04 14:53:45;;;;;;;12.02;5.60;;;;;;;;;;5037312;28;19921;-74
2023/12/04 15:20:44;;;;;;;15.23;6.75;;;;;;;;;;5070107;28;20401;-75
2023/12/04 15:23:10;;;;;;;14.43;7.13;;;;;;;;;;5048599;28;20046;-74
2023/12/04 15:25:36;;;;;;;15.20;8.10;;;;;;;;;;5060559;28;20044;-75
2023/12/04 15:28:07;;;;;;;16.55;8.00;;;;;;;;;;5018931;28;20119;-72
2023/12/04 15:30:34;;;;;;;14.05;7.03;;;;;;;;;;5054930;28;20044;-74
2023/12/04 15:33:00;;;;;;;12.45;6.43;;;;;;;;;;5076196;28;20573;-74
2023/12/04 15:35:26;;;;;;;;;;;;;;;;;;5076610;28;20052;-73
2023/12/04 15:37:52;;;;;;;11.80;5.90;;;;;;;;;;5074688;28;20007;-75